Queen Of Cowichan — CZ4990 — position and weather

sailwx.info

Track history (hours):
 
Tides and Currents Weather Stations Pressure Air Temp Water Temp Dewpoint Dewpoint Depression Visibility Wind Speed Wind Dir Waves Ship Positions

Queen Of Cowichan

Last reported at 2017-Jan-17 18:33 UTC. Time now 2017-Jan-17 19:15 UTC.
Position N 49°12' W 123°57'.

Length 139 m.

Type: Passenger vessel. MMSI: 316001251.

Date/timePositionNaut miles runAvg speedWind from/ knotsBaromVisibWave heightAir tempDewpointWater temp
2017-Jan-17 18:33N 49°12' W 123°57'1110.6
2017-Jan-17 17:33N 49°16' W 123°43'1818.5
2017-Jan-17 16:33N 49°23' W 123°16'10 9.9
2017-Jan-17 15:33N 49°18' W 123°29'1919.2
2017-Jan-17 14:33N 49°12' W 123°57'0 0.0
2017-Jan-17 13:33N 49°12' W 123°57'0 0.0
2017-Jan-17 12:33N 49°12' W 123°57'0 0.0
2017-Jan-17 11:33N 49°12' W 123°57'0 0.0
2017-Jan-17 10:33N 49°12' W 123°57'0 0.0
2017-Jan-17 09:32N 49°12' W 123°57'0 0.0
2017-Jan-17 08:33N 49°12' W 123°57'0 0.0
2017-Jan-17 07:33N 49°12' W 123°57'0 0.0
2017-Jan-17 06:33N 49°12' W 123°57'0 0.0
2017-Jan-17 05:32N 49°12' W 123°57'0 0.0
2017-Jan-17 04:33N 49°12' W 123°57'0 0.0
2017-Jan-17 03:33N 49°12' W 123°57'0 0.2
2017-Jan-17 02:33N 49°12' W 123°57'2019.9
2017-Jan-17 01:34N 49°19' W 123°29'9 9.1
2017-Jan-17 00:33N 49°23' W 123°16'1918.7
2017-Jan-16 23:33N 49°15' W 123°43'1010.2
2017-Jan-16 22:33N 49°12' W 123°57'10 9.9
2017-Jan-16 21:33N 49°16' W 123°44'1919.3
2017-Jan-16 20:33N 49°23' W 123°16'9 9.4
2017-Jan-16 19:33N 49°17' W 123°28'2020.0
2017-Jan-16 18:34N 49°12' W 123°57'10 9.9
2017-Jan-16 17:33N 49°16' W 123°43'1919.0
2017-Jan-16 16:33N 49°23' W 123°16'8 8.3
2017-Jan-16 15:33N 49°18' W 123°27'21 2.3
2017-Jan-16 06:32N 49°12' W 123°57'1920.0
2017-Jan-16 05:33N 49°18' W 123°29'10 9.6
2017-Jan-16 04:33N 49°23' W 123°16'1919.3
2017-Jan-16 03:33N 49°15' W 123°43'9 9.3
2017-Jan-16 02:33N 49°12' W 123°57'2020.4
2017-Jan-16 01:34N 49°19' W 123°28'8 8.5
2017-Jan-16 00:33N 49°23' W 123°16'1919.3
2017-Jan-15 23:33N 49°15' W 123°44'10 6.7
2017-Jan-15 22:08N 49°12' W 123°57'1119.7
2017-Jan-15 21:33N 49°16' W 123°41'1712.7
2017-Jan-15 20:11N 49°23' W 123°16'1016.7
2017-Jan-15 19:34N 49°17' W 123°30'1812.5
2017-Jan-15 18:05N 49°12' W 123°57'1019.2
2017-Jan-15 17:33N 49°16' W 123°43'1917.9
2017-Jan-15 16:31N 49°23' W 123°16'8 8.7
2017-Jan-15 15:33N 49°18' W 123°27'20 2.3
2017-Jan-15 06:30N 49°12' W 123°57'1920.2
2017-Jan-15 05:33N 49°18' W 123°30'10 9.8
2017-Jan-15 04:33N 49°23' W 123°16'1918.5
2017-Jan-15 03:33N 49°15' W 123°42'1010.3
2017-Jan-15 02:32N 49°12' W 123°57'2019.9
2017-Jan-15 01:34N 49°18' W 123°29'10 9.5
2017-Jan-15 00:33N 49°23' W 123°16'1918.8
2017-Jan-14 23:33N 49°15' W 123°43'1 0.5
2017-Jan-14 21:33N 49°16' W 123°43'1918.6
2017-Jan-14 20:33N 49°23' W 123°16'9 9.3
2017-Jan-14 19:33N 49°18' W 123°28'2019.7
2017-Jan-14 18:33N 49°12' W 123°57'1110.8
2017-Jan-14 17:33N 49°16' W 123°42'1818.4
2017-Jan-14 16:33N 49°23' W 123°16'8 8.3
2017-Jan-14 15:34N 49°18' W 123°27'2120.3
2017-Jan-14 14:33N 49°12' W 123°57'0 0.0
2017-Jan-14 06:31N 49°12' W 123°57'1920.0
2017-Jan-14 05:33N 49°18' W 123°30'10 9.8
2017-Jan-14 04:33N 49°23' W 123°17'1918.8
2017-Jan-14 03:33N 49°15' W 123°43'0 0.1
2017-Jan-13 23:33N 49°15' W 123°42'1 0.5
2017-Jan-13 21:33N 49°16' W 123°43'1914.9
2017-Jan-13 20:18N 49°23' W 123°16'911.6
2017-Jan-13 19:33N 49°18' W 123°27'11 5.5
2017-Jan-13 17:33N 49°16' W 123°44'1919.7
2017-Jan-13 16:34N 49°23' W 123°16'9 8.6
2017-Jan-13 15:34N 49°18' W 123°27'2020.2
2017-Jan-13 14:33N 49°12' W 123°57'1 0.1
2017-Jan-13 02:31N 49°13' W 123°55'1919.9
2017-Jan-13 01:33N 49°19' W 123°27'8 7.7
2017-Jan-13 00:34N 49°23' W 123°17'1919.1
2017-Jan-12 23:33N 49°15' W 123°44'10 9.6
2017-Jan-12 22:34N 49°12' W 123°57'10 9.6
2017-Jan-12 21:33N 49°16' W 123°44'1919.5
2017-Jan-12 20:34N 49°23' W 123°16'10 9.6
2017-Jan-12 19:33N 49°18' W 123°29'2019.6
2017-Jan-12 18:33N 49°12' W 123°57'1110.6
2017-Jan-12 17:33N 49°16' W 123°43'1818.5
2017-Jan-12 16:34N 49°23' W 123°16'9 8.8
2017-Jan-12 15:33N 49°18' W 123°28'2019.8
2017-Jan-12 14:33N 49°12' W 123°57'1 0.4
2017-Jan-12 12:13N 49°12' W 123°57'0 0.0
2017-Jan-12 11:19N 49°12' W 123°57'0 0.0
2017-Jan-12 09:19N 49°12' W 123°57'1 0.1
2017-Jan-12 02:33N 49°12' W 123°57'2019.8
2017-Jan-12 01:33N 49°19' W 123°29'9 8.9
2017-Jan-12 00:33N 49°23' W 123°17'1918.9
2017-Jan-11 23:33N 49°15' W 123°43'10 9.2
2017-Jan-11 22:27N 49°12' W 123°57'1011.7
2017-Jan-11 21:33N 49°16' W 123°43'1817.9
2017-Jan-11 20:31N 49°23' W 123°16'1010.6
2017-Jan-11 19:34N 49°18' W 123°30'1916.7
2017-Jan-11 18:26N 49°12' W 123°57'1213.4
2017-Jan-11 17:33N 49°16' W 123°41'1717.1
2017-Jan-11 16:33N 49°23' W 123°16'1110.9
2017-Jan-11 15:33N 49°17' W 123°31'1817.7
2017-Jan-11 14:32N 49°12' W 123°57'1 0.1
2017-Jan-11 02:33N 49°12' W 123°57'2019.8
2017-Jan-11 01:34N 49°19' W 123°28'9 8.7
2017-Jan-11 00:33N 49°23' W 123°16'1918.7
2017-Jan-10 23:33N 49°15' W 123°42'10 9.9
2017-Jan-10 22:30N 49°12' W 123°57'9 9.8
2017-Jan-10 21:33N 49°16' W 123°45'2019.6
2017-Jan-10 20:33N 49°23' W 123°17'8 8.1
2017-Jan-10 19:34N 49°18' W 123°26'2020.3
2017-Jan-10 18:33N 49°12' W 123°56'9 8.4
2017-Jan-10 17:32N 49°16' W 123°44'1919.6
2017-Jan-10 16:33N 49°23' W 123°17'8 8.0
2017-Jan-10 15:33N 49°18' W 123°26'2020.3
2017-Jan-10 14:33N 49°12' W 123°57'5 0.4
2017-Jan-10 02:32N 49°14' W 123°50'1515.6
2017-Jan-10 01:33N 49°19' W 123°27'8 8.3
2017-Jan-10 00:33N 49°23' W 123°16'1818.4
2017-Jan-09 23:33N 49°15' W 123°42'11 9.8
2017-Jan-09 22:27N 49°12' W 123°57'1010.3
2017-Jan-09 21:32N 49°16' W 123°44'1919.5
2017-Jan-09 20:33N 49°23' W 123°17'8 8.3
2017-Jan-09 19:33N 49°18' W 123°27'2020.3
2017-Jan-09 18:33N 49°12' W 123°57'9 9.3
2017-Jan-09 17:33N 49°16' W 123°44'1919.5
2017-Jan-09 16:33N 49°23' W 123°17'8 8.4
2017-Jan-09 15:34N 49°18' W 123°27'2020.3
2017-Jan-09 14:33N 49°12' W 123°57'1 0.7
2017-Jan-09 13:33N 49°12' W 123°57'0 0.0
2017-Jan-09 12:32N 49°12' W 123°57'0 0.0
2017-Jan-09 11:33N 49°12' W 123°57'0 0.0
2017-Jan-09 10:27N 49°12' W 123°57'0 0.0
2017-Jan-09 07:23N 49°12' W 123°57'0 0.6
2017-Jan-09 06:32N 49°12' W 123°57'2020.0
2017-Jan-09 05:33N 49°19' W 123°29'9 9.3
2017-Jan-09 04:33N 49°23' W 123°16'1918.6
2017-Jan-09 03:33N 49°15' W 123°42'1010.3
2017-Jan-09 02:33N 49°12' W 123°57'1919.8
2017-Jan-09 01:33N 49°19' W 123°29'9 9.2
2017-Jan-09 00:32N 49°23' W 123°16'1818.6
2017-Jan-08 23:33N 49°15' W 123°42'1110.5
2017-Jan-08 22:32N 49°12' W 123°57'9 9.6
2017-Jan-08 21:33N 49°16' W 123°44'1919.5
2017-Jan-08 20:33N 49°23' W 123°17'8 8.5
2017-Jan-08 19:33N 49°18' W 123°27'2020.3
2017-Jan-08 18:33N 49°12' W 123°57'9 8.8
2017-Jan-08 17:33N 49°16' W 123°45'1919.6
2017-Jan-08 16:34N 49°23' W 123°17'8 8.3
2017-Jan-08 15:34N 49°18' W 123°27'2020.2
2017-Jan-08 14:33N 49°12' W 123°57'1 0.6
2017-Jan-08 13:26N 49°12' W 123°57'0 0.0
2017-Jan-08 12:32N 49°12' W 123°57'0 0.0
2017-Jan-08 11:33N 49°12' W 123°57'0 0.0
2017-Jan-08 10:32N 49°12' W 123°57'0 0.0
2017-Jan-08 09:32N 49°12' W 123°57'0 0.0
2017-Jan-08 08:27N 49°12' W 123°57'0 0.0
2017-Jan-08 07:29N 49°12' W 123°57'0 0.3
2017-Jan-08 06:33N 49°12' W 123°57'2020.0
2017-Jan-08 05:33N 49°19' W 123°29'9 8.9
2017-Jan-08 04:33N 49°23' W 123°16'1818.4
2017-Jan-08 03:33N 49°15' W 123°42'1110.6
2017-Jan-08 02:33N 49°12' W 123°57'2020.0
2017-Jan-08 01:33N 49°18' W 123°29'9 9.2
2017-Jan-08 00:33N 49°23' W 123°16'1918.7
2017-Jan-07 23:33N 49°15' W 123°42'1010.1
2017-Jan-07 22:31N 49°12' W 123°57'9 9.6
2017-Jan-07 21:33N 49°16' W 123°45'2019.6
2017-Jan-07 20:34N 49°23' W 123°17'8 8.1
2017-Jan-07 19:33N 49°18' W 123°27'  
Track history (hours):
 
Tides and Currents Weather Stations Pressure Air Temp Water Temp Dewpoint Dewpoint Depression Visibility Wind Speed Wind Dir Waves Ship Positions

Queen Of Cowichan

Last reported at 2017-Jan-17 18:33 UTC. Time now 2017-Jan-17 19:15 UTC.
Position N 49°12' W 123°57'.

Length 139 m.

Type: Passenger vessel. MMSI: 316001251.

Date/timePositionNaut miles runAvg speedWind from/ knotsBaromVisibWave heightAir tempDewpointWater temp
2017-Jan-17 18:33N 49°12' W 123°57'1110.6
2017-Jan-17 17:33N 49°16' W 123°43'1818.5
2017-Jan-17 16:33N 49°23' W 123°16'10 9.9
2017-Jan-17 15:33N 49°18' W 123°29'1919.2
2017-Jan-17 14:33N 49°12' W 123°57'0 0.0
2017-Jan-17 13:33N 49°12' W 123°57'0 0.0
2017-Jan-17 12:33N 49°12' W 123°57'0 0.0
2017-Jan-17 11:33N 49°12' W 123°57'0 0.0
2017-Jan-17 10:33N 49°12' W 123°57'0 0.0
2017-Jan-17 09:32N 49°12' W 123°57'0 0.0
2017-Jan-17 08:33N 49°12' W 123°57'0 0.0
2017-Jan-17 07:33N 49°12' W 123°57'0 0.0
2017-Jan-17 06:33N 49°12' W 123°57'0 0.0
2017-Jan-17 05:32N 49°12' W 123°57'0 0.0
2017-Jan-17 04:33N 49°12' W 123°57'0 0.0
2017-Jan-17 03:33N 49°12' W 123°57'0 0.2
2017-Jan-17 02:33N 49°12' W 123°57'2019.9
2017-Jan-17 01:34N 49°19' W 123°29'9 9.1
2017-Jan-17 00:33N 49°23' W 123°16'1918.7
2017-Jan-16 23:33N 49°15' W 123°43'1010.2
2017-Jan-16 22:33N 49°12' W 123°57'10 9.9
2017-Jan-16 21:33N 49°16' W 123°44'1919.3
2017-Jan-16 20:33N 49°23' W 123°16'9 9.4
2017-Jan-16 19:33N 49°17' W 123°28'2020.0
2017-Jan-16 18:34N 49°12' W 123°57'10 9.9
2017-Jan-16 17:33N 49°16' W 123°43'1919.0
2017-Jan-16 16:33N 49°23' W 123°16'8 8.3
2017-Jan-16 15:33N 49°18' W 123°27'21 2.3
2017-Jan-16 06:32N 49°12' W 123°57'1920.0
2017-Jan-16 05:33N 49°18' W 123°29'10 9.6
2017-Jan-16 04:33N 49°23' W 123°16'1919.3
2017-Jan-16 03:33N 49°15' W 123°43'9 9.3
2017-Jan-16 02:33N 49°12' W 123°57'2020.4
2017-Jan-16 01:34N 49°19' W 123°28'8 8.5
2017-Jan-16 00:33N 49°23' W 123°16'1919.3
2017-Jan-15 23:33N 49°15' W 123°44'10 6.7
2017-Jan-15 22:08N 49°12' W 123°57'1119.7
2017-Jan-15 21:33N 49°16' W 123°41'1712.7
2017-Jan-15 20:11N 49°23' W 123°16'1016.7
2017-Jan-15 19:34N 49°17' W 123°30'1812.5
2017-Jan-15 18:05N 49°12' W 123°57'1019.2
2017-Jan-15 17:33N 49°16' W 123°43'1917.9
2017-Jan-15 16:31N 49°23' W 123°16'8 8.7
2017-Jan-15 15:33N 49°18' W 123°27'20 2.3
2017-Jan-15 06:30N 49°12' W 123°57'1920.2
2017-Jan-15 05:33N 49°18' W 123°30'10 9.8
2017-Jan-15 04:33N 49°23' W 123°16'1918.5
2017-Jan-15 03:33N 49°15' W 123°42'1010.3
2017-Jan-15 02:32N 49°12' W 123°57'2019.9
2017-Jan-15 01:34N 49°18' W 123°29'10 9.5
2017-Jan-15 00:33N 49°23' W 123°16'1918.8
2017-Jan-14 23:33N 49°15' W 123°43'1 0.5
2017-Jan-14 21:33N 49°16' W 123°43'1918.6
2017-Jan-14 20:33N 49°23' W 123°16'9 9.3
2017-Jan-14 19:33N 49°18' W 123°28'2019.7
2017-Jan-14 18:33N 49°12' W 123°57'1110.8
2017-Jan-14 17:33N 49°16' W 123°42'1818.4
2017-Jan-14 16:33N 49°23' W 123°16'8 8.3
2017-Jan-14 15:34N 49°18' W 123°27'2120.3
2017-Jan-14 14:33N 49°12' W 123°57'0 0.0
2017-Jan-14 06:31N 49°12' W 123°57'1920.0
2017-Jan-14 05:33N 49°18' W 123°30'10 9.8
2017-Jan-14 04:33N 49°23' W 123°17'1918.8
2017-Jan-14 03:33N 49°15' W 123°43'0 0.1
2017-Jan-13 23:33N 49°15' W 123°42'1 0.5
2017-Jan-13 21:33N 49°16' W 123°43'1914.9
2017-Jan-13 20:18N 49°23' W 123°16'911.6
2017-Jan-13 19:33N 49°18' W 123°27'11 5.5
2017-Jan-13 17:33N 49°16' W 123°44'1919.7
2017-Jan-13 16:34N 49°23' W 123°16'9 8.6
2017-Jan-13 15:34N 49°18' W 123°27'2020.2
2017-Jan-13 14:33N 49°12' W 123°57'1 0.1
2017-Jan-13 02:31N 49°13' W 123°55'1919.9
2017-Jan-13 01:33N 49°19' W 123°27'8 7.7
2017-Jan-13 00:34N 49°23' W 123°17'1919.1
2017-Jan-12 23:33N 49°15' W 123°44'10 9.6
2017-Jan-12 22:34N 49°12' W 123°57'10 9.6
2017-Jan-12 21:33N 49°16' W 123°44'1919.5
2017-Jan-12 20:34N 49°23' W 123°16'10 9.6
2017-Jan-12 19:33N 49°18' W 123°29'2019.6
2017-Jan-12 18:33N 49°12' W 123°57'1110.6
2017-Jan-12 17:33N 49°16' W 123°43'1818.5
2017-Jan-12 16:34N 49°23' W 123°16'9 8.8
2017-Jan-12 15:33N 49°18' W 123°28'2019.8
2017-Jan-12 14:33N 49°12' W 123°57'1 0.4
2017-Jan-12 12:13N 49°12' W 123°57'0 0.0
2017-Jan-12 11:19N 49°12' W 123°57'0 0.0
2017-Jan-12 09:19N 49°12' W 123°57'1 0.1
2017-Jan-12 02:33N 49°12' W 123°57'2019.8
2017-Jan-12 01:33N 49°19' W 123°29'9 8.9
2017-Jan-12 00:33N 49°23' W 123°17'1918.9
2017-Jan-11 23:33N 49°15' W 123°43'10 9.2
2017-Jan-11 22:27N 49°12' W 123°57'1011.7
2017-Jan-11 21:33N 49°16' W 123°43'1817.9
2017-Jan-11 20:31N 49°23' W 123°16'1010.6
2017-Jan-11 19:34N 49°18' W 123°30'1916.7
2017-Jan-11 18:26N 49°12' W 123°57'1213.4
2017-Jan-11 17:33N 49°16' W 123°41'1717.1
2017-Jan-11 16:33N 49°23' W 123°16'1110.9
2017-Jan-11 15:33N 49°17' W 123°31'1817.7
2017-Jan-11 14:32N 49°12' W 123°57'1 0.1
2017-Jan-11 02:33N 49°12' W 123°57'2019.8
2017-Jan-11 01:34N 49°19' W 123°28'9 8.7
2017-Jan-11 00:33N 49°23' W 123°16'1918.7
2017-Jan-10 23:33N 49°15' W 123°42'10 9.9
2017-Jan-10 22:30N 49°12' W 123°57'9 9.8
2017-Jan-10 21:33N 49°16' W 123°45'2019.6
2017-Jan-10 20:33N 49°23' W 123°17'8 8.1
2017-Jan-10 19:34N 49°18' W 123°26'2020.3
2017-Jan-10 18:33N 49°12' W 123°56'9 8.4
2017-Jan-10 17:32N 49°16' W 123°44'1919.6
2017-Jan-10 16:33N 49°23' W 123°17'8 8.0
2017-Jan-10 15:33N 49°18' W 123°26'2020.3
2017-Jan-10 14:33N 49°12' W 123°57'5 0.4
2017-Jan-10 02:32N 49°14' W 123°50'1515.6
2017-Jan-10 01:33N 49°19' W 123°27'8 8.3
2017-Jan-10 00:33N 49°23' W 123°16'1818.4
2017-Jan-09 23:33N 49°15' W 123°42'11 9.8
2017-Jan-09 22:27N 49°12' W 123°57'1010.3
2017-Jan-09 21:32N 49°16' W 123°44'1919.5
2017-Jan-09 20:33N 49°23' W 123°17'8 8.3
2017-Jan-09 19:33N 49°18' W 123°27'2020.3
2017-Jan-09 18:33N 49°12' W 123°57'9 9.3
2017-Jan-09 17:33N 49°16' W 123°44'1919.5
2017-Jan-09 16:33N 49°23' W 123°17'8 8.4
2017-Jan-09 15:34N 49°18' W 123°27'2020.3
2017-Jan-09 14:33N 49°12' W 123°57'1 0.7
2017-Jan-09 13:33N 49°12' W 123°57'0 0.0
2017-Jan-09 12:32N 49°12' W 123°57'0 0.0
2017-Jan-09 11:33N 49°12' W 123°57'0 0.0
2017-Jan-09 10:27N 49°12' W 123°57'0 0.0
2017-Jan-09 07:23N 49°12' W 123°57'0 0.6
2017-Jan-09 06:32N 49°12' W 123°57'2020.0
2017-Jan-09 05:33N 49°19' W 123°29'9 9.3
2017-Jan-09 04:33N 49°23' W 123°16'1918.6
2017-Jan-09 03:33N 49°15' W 123°42'1010.3
2017-Jan-09 02:33N 49°12' W 123°57'1919.8
2017-Jan-09 01:33N 49°19' W 123°29'9 9.2
2017-Jan-09 00:32N 49°23' W 123°16'1818.6
2017-Jan-08 23:33N 49°15' W 123°42'1110.5
2017-Jan-08 22:32N 49°12' W 123°57'9 9.6
2017-Jan-08 21:33N 49°16' W 123°44'1919.5
2017-Jan-08 20:33N 49°23' W 123°17'8 8.5
2017-Jan-08 19:33N 49°18' W 123°27'2020.3
2017-Jan-08 18:33N 49°12' W 123°57'9 8.8
2017-Jan-08 17:33N 49°16' W 123°45'1919.6
2017-Jan-08 16:34N 49°23' W 123°17'8 8.3
2017-Jan-08 15:34N 49°18' W 123°27'2020.2
2017-Jan-08 14:33N 49°12' W 123°57'1 0.6
2017-Jan-08 13:26N 49°12' W 123°57'0 0.0
2017-Jan-08 12:32N 49°12' W 123°57'0 0.0
2017-Jan-08 11:33N 49°12' W 123°57'0 0.0
2017-Jan-08 10:32N 49°12' W 123°57'0 0.0
2017-Jan-08 09:32N 49°12' W 123°57'0 0.0
2017-Jan-08 08:27N 49°12' W 123°57'0 0.0
2017-Jan-08 07:29N 49°12' W 123°57'0 0.3
2017-Jan-08 06:33N 49°12' W 123°57'2020.0
2017-Jan-08 05:33N 49°19' W 123°29'9 8.9
2017-Jan-08 04:33N 49°23' W 123°16'1818.4
2017-Jan-08 03:33N 49°15' W 123°42'1110.6
2017-Jan-08 02:33N 49°12' W 123°57'2020.0
2017-Jan-08 01:33N 49°18' W 123°29'9 9.2
2017-Jan-08 00:33N 49°23' W 123°16'1918.7
2017-Jan-07 23:33N 49°15' W 123°42'1010.1
2017-Jan-07 22:31N 49°12' W 123°57'9 9.6
2017-Jan-07 21:33N 49°16' W 123°45'2019.6
2017-Jan-07 20:34N 49°23' W 123°17'8 8.1
2017-Jan-07 19:33N 49°18' W 123°27'  

Dump ship's entire track history